Kruzenshtern — UCVK — position and weather

sailwx.info

Track history (hours):
 
Tides and Currents Weather Stations Pressure Air Temp Water Temp Dewpoint Dewpoint Depression Visibility Wind Speed Wind Dir Waves Ship Positions

Kruzenshtern (Russia)

ex-Padua.

Last reported at 2018-Apr-23 05:36 UTC. Time now 2018-Apr-27 08:48 UTC.
Position N 54°40' E 020°09'.

Length 114 m; draft 6 m.

Type: Sailing vessel. MMSI: 273243700.

Date/timePositionNaut miles runAvg speedWind from/ knotsBaromVisibWave heightAir tempDewpointWater temp
2018-Apr-23 05:36N 54°40' E 020°09'0 2.5
2018-Apr-23 05:30N 54°40' E 020°08'6 6.3
2018-Apr-23 04:31N 54°38' E 019°58'1 8.9
2018-Apr-23 04:27N 54°38' E 019°57'3 6.6
2018-Apr-23 03:59N 54°39' E 019°52'4 7.4
2018-Apr-23 03:30N 54°40' E 019°47'2 4.7
2018-Apr-23 03:00N 54°40' E 019°43'1 1.6
2018-Apr-23 02:30N 54°39' E 019°42'0 1.0
2018-Apr-23 02:00N 54°39' E 019°42'1 1.4
2018-Apr-23 01:30N 54°39' E 019°41'3 6.0
2018-Apr-23 01:00N 54°40' E 019°36'1 2.4
2018-Apr-23 00:30N 54°40' E 019°34'0 0.7
2018-Apr-23 00:00N 54°39' E 019°34'0 0.7
2018-Apr-22 23:28N 54°39' E 019°35'0 0.7
2018-Apr-22 22:59N 54°39' E 019°35'0 0.7
2018-Apr-22 22:20N 54°38' E 019°35'0 0.8
2018-Apr-22 22:00N 54°38' E 019°36'0 0.8
2018-Apr-22 21:30N 54°38' E 019°36'0 0.7
2018-Apr-22 21:00N 54°38' E 019°37'0 0.6
2018-Apr-22 20:30N 54°38' E 019°38'0 0.6
2018-Apr-22 19:56N 54°38' E 019°38'0 0.6
2018-Apr-22 19:18N 54°38' E 019°39'0 0.6
2018-Apr-22 18:48N 54°38' E 019°39'0 0.5
2018-Apr-22 18:30N 54°38' E 019°39'0 0.6
2018-Apr-22 18:00N 54°38' E 019°40'0 0.4
2018-Apr-22 17:21N 54°38' E 019°40'0 0.3
2018-Apr-22 17:00N 54°39' E 019°40'1 1.3
2018-Apr-22 16:30N 54°39' E 019°40'3 6.3
2018-Apr-22 16:00N 54°39' E 019°34'3 5.2
2018-Apr-22 15:29N 54°39' E 019°29'0 0.8
2018-Apr-22 15:00N 54°40' E 019°30'1 1.5
2018-Apr-22 14:30N 54°40' E 019°30'3 6.3
2018-Apr-22 13:59N 54°43' E 019°27'4 7.3
2018-Apr-22 13:29N 54°46' E 019°24'3 7.3
2018-Apr-22 13:00N 54°50' E 019°22'2 4.9
2018-Apr-22 12:31N 54°51' E 019°19'0 0.8
2018-Apr-22 12:00N 54°51' E 019°18'1 0.8
2018-Apr-22 11:15N 54°52' E 019°17'1 0.9
2018-Apr-22 10:36N 54°52' E 019°16'0 0.9
2018-Apr-22 10:26N 54°52' E 019°16'0 0.9
2018-Apr-22 10:00N 54°52' E 019°15'0 0.8
2018-Apr-22 09:30N 54°52' E 019°15'0 0.8
2018-Apr-22 08:55N 54°52' E 019°14'0 0.8
2018-Apr-22 08:30N 54°52' E 019°13'0 0.9
2018-Apr-22 07:58N 54°52' E 019°13'0 0.9
2018-Apr-22 07:30N 54°52' E 019°12'1 0.9
2018-Apr-22 06:57N 54°53' E 019°11'1 1.5
2018-Apr-22 06:27N 54°53' E 019°10'1 0.9
2018-Apr-22 05:42N 54°53' E 019°09'0 1.0
2018-Apr-22 05:23N 54°54' E 019°09'0 0.9
2018-Apr-22 05:00N 54°54' E 019°08'0 0.9
2018-Apr-22 04:30N 54°54' E 019°07'1 1.0
2018-Apr-22 03:39N 54°54' E 019°06'0 1.0
2018-Apr-22 03:19N 54°55' E 019°06'0 1.0
2018-Apr-22 02:54N 54°55' E 019°05'0 1.0
2018-Apr-22 02:28N 54°55' E 019°04'1 1.1
2018-Apr-22 01:57N 54°55' E 019°04'1 1.1
2018-Apr-22 01:30N 54°56' E 019°03'2 4.2
2018-Apr-22 01:00N 54°56' E 018°60'4 7.7
2018-Apr-22 00:29N 54°58' E 018°53'4 7.7
2018-Apr-21 23:57N 54°59' E 018°46'3 7.7
2018-Apr-21 23:30N 54°60' E 018°40'4 7.6
2018-Apr-21 22:56N 55°01' E 018°33'97 5.6
2018-Apr-21 05:34N 54°51' E 015°45'3 7.1
2018-Apr-21 05:10N 54°51' E 015°41'22 7.2
2018-Apr-21 02:08N 54°43' E 015°05'2 7.2
2018-Apr-21 01:52N 54°43' E 015°02'3 7.4
2018-Apr-21 01:28N 54°42' E 014°57'3 7.5
2018-Apr-21 01:00N 54°41' E 014°51'4 7.5
2018-Apr-21 00:26N 54°39' E 014°44'38 2.7
2018-Apr-20 10:33N 54°51' E 013°42'0 0.6
2018-Apr-20 10:08N 54°50' E 013°42'1 0.2
2018-Apr-20 05:39N 54°51' E 013°42'1 0.4
2018-Apr-20 04:14N 54°51' E 013°41'4 3.5
2018-Apr-20 03:08N 54°54' E 013°46'4 5.3
2018-Apr-20 02:27N 54°57' E 013°48'3 0.7
2018-Apr-19 21:56N 54°54' E 013°46'1 0.8
2018-Apr-19 21:15N 54°54' E 013°46'1 0.8
2018-Apr-19 19:35N 54°53' E 013°45'0 0.7
2018-Apr-19 19:29N 54°52' E 013°44'1 0.7
2018-Apr-19 18:13N 54°52' E 013°44'0 0.7
2018-Apr-19 17:59N 54°52' E 013°44'0 0.6
2018-Apr-19 17:30N 54°51' E 013°43'1 0.6
2018-Apr-19 16:39N 54°51' E 013°43'32 3.0
2018-Apr-19 06:08N 54°44' E 012°49'1 6.9
2018-Apr-19 05:59N 54°44' E 012°47'12 6.9
2018-Apr-19 04:15N 54°38' E 012°29'2 6.8
2018-Apr-19 04:00N 54°37' E 012°26'3 6.6
2018-Apr-19 03:30N 54°35' E 012°22'5 6.6
2018-Apr-19 02:48N 54°32' E 012°17'2 7.0
2018-Apr-19 02:29N 54°29' E 012°16'8 6.3
2018-Apr-19 01:15N 54°25' E 012°05'2 7.2
2018-Apr-19 01:00N 54°25' E 012°02'4 7.1
2018-Apr-19 00:30N 54°25' E 011°56'178 7.1
2018-Apr-17 23:28N 57°18' E 010°42'4 7.7
2018-Apr-17 22:55N 57°22' E 010°42'4 7.9
2018-Apr-17 22:28N 57°25' E 010°43'4 8.0
2018-Apr-17 22:00N 57°29' E 010°43'4 8.2
2018-Apr-17 21:30N 57°33' E 010°43'4 8.5
2018-Apr-17 21:00N 57°37' E 010°42'4 7.2
2018-Apr-17 20:30N 57°41' E 010°40'0 0.7
2018-Apr-17 19:48N 57°41' E 010°40'0 0.0
2018-Apr-17 19:27N 57°41' E 010°40'0 0.0
2018-Apr-17 18:57N 57°41' E 010°40'0 0.0
2018-Apr-17 18:27N 57°41' E 010°40'0 0.0
2018-Apr-17 17:42N 57°41' E 010°40'0 0.0
2018-Apr-17 17:27N 57°41' E 010°40'0 0.0
2018-Apr-17 17:00N 57°41' E 010°40'0 0.0
2018-Apr-17 16:24N 57°41' E 010°40'0 0.0
2018-Apr-17 16:00N 57°41' E 010°40'0 0.0
2018-Apr-17 15:30N 57°41' E 010°40'0 0.0
2018-Apr-17 14:54N 57°41' E 010°40'0 0.0
2018-Apr-17 14:27N 57°41' E 010°40'0 0.0
2018-Apr-17 13:57N 57°41' E 010°40'0 0.0
2018-Apr-17 13:21N 57°41' E 010°40'0 0.0
2018-Apr-17 13:00N 57°41' E 010°40'0 0.0
2018-Apr-17 12:27N 57°41' E 010°40'0 0.0
2018-Apr-17 12:00N 57°41' E 010°40'0 0.0
2018-Apr-17 11:30N 57°41' E 010°40'0 0.0
2018-Apr-17 10:57N 57°41' E 010°40'0 0.0
2018-Apr-17 10:30N 57°41' E 010°40'0 0.0
2018-Apr-17 09:57N 57°41' E 010°40'0 0.0
2018-Apr-17 09:30N 57°41' E 010°40'0 0.0
2018-Apr-17 09:00N 57°41' E 010°40'0 0.0
2018-Apr-17 08:15N 57°41' E 010°40'0 0.0
2018-Apr-17 07:54N 57°41' E 010°40'0 0.0
2018-Apr-17 07:27N 57°41' E 010°40'0 0.0
2018-Apr-17 06:54N 57°41' E 010°40'0 0.0
2018-Apr-17 06:30N 57°41' E 010°40'0 0.0
2018-Apr-17 06:00N 57°41' E 010°40'1 1.2
2018-Apr-17 05:30N 57°41' E 010°41'3 5.7
2018-Apr-17 04:54N 57°44' E 010°44'2 5.7
2018-Apr-17 04:30N 57°46' E 010°43'5 8.2
2018-Apr-17 03:56N 57°47' E 010°35'4 8.3
2018-Apr-17 03:30N 57°46' E 010°28'4 8.0
2018-Apr-17 02:59N 57°45' E 010°20'4 7.8
2018-Apr-17 02:30N 57°44' E 010°14'142 6.8
2018-Apr-16 05:44N 56°09' E 007°00'2 7.0
2018-Apr-16 05:29N 56°07' E 006°59'3 7.1
2018-Apr-16 05:00N 56°05' E 006°55'3 7.0
2018-Apr-16 04:30N 56°02' E 006°51'4 6.9
2018-Apr-16 03:57N 55°59' E 006°46'3 6.8
2018-Apr-16 03:30N 55°57' E 006°43'4 7.1
2018-Apr-16 02:59N 55°54' E 006°38'154 6.6
2018-Apr-15 03:36N 53°33' E 004°48'210.9
2018-Apr-15 03:22N 53°31' E 004°46'511.0
2018-Apr-15 02:56N 53°27' E 004°43'810.8
2018-Apr-15 02:12N 53°19' E 004°39'310.7
2018-Apr-15 01:58N 53°17' E 004°37'510.6
2018-Apr-15 01:30N 53°12' E 004°34'510.2
2018-Apr-15 01:00N 53°08' E 004°30'510.0
2018-Apr-15 00:30N 53°03' E 004°26'5 9.6
2018-Apr-14 23:59N 52°59' E 004°22'5 9.5
2018-Apr-14 23:30N 52°55' E 004°18'5 9.2
2018-Apr-14 23:00N 52°51' E 004°14'5 9.1
2018-Apr-14 22:30N 52°48' E 004°10'5 9.0
2018-Apr-14 21:57N 52°44' E 004°05'5 8.9
2018-Apr-14 21:26N 52°40' E 003°60'4 8.8
2018-Apr-14 20:58N 52°37' E 003°55'4 8.7
2018-Apr-14 20:30N 52°34' E 003°50'5 8.5
2018-Apr-14 19:58N 52°31' E 003°45'4 8.5
2018-Apr-14 19:27N 52°28' E 003°40'4 8.6
2018-Apr-14 19:00N 52°25' E 003°36'5910.4
2018-Apr-14 13:20N 51°42' E 002°31'411.8
2018-Apr-14 12:59N 51°38' E 002°27'611.8
2018-Apr-14 12:30N 51°34' E 002°21'611.8
2018-Apr-14 12:00N 51°30' E 002°15'611.7
2018-Apr-14 11:29N 51°25' E 002°08'711.8
2018-Apr-14 10:55N 51°20' E 002°01'511.9
2018-Apr-14 10:30N 51°17' E 001°56'611.9
2018-Apr-14 09:58N 51°12' E 001°48'511.5
2018-Apr-14 09:30N 51°08' E 001°43'611.2
2018-Apr-14 08:59N 51°03' E 001°39'68 8.7
2018-Apr-14 01:13N 50°21' E 000°15'3 8.9
2018-Apr-14 00:51N 50°20' E 000°10'9 9.0
2018-Apr-13 23:48N 50°18' W 000°04'3 9.0
2018-Apr-13 23:28N 50°17' W 000°09'  
Track history (hours):
 
Tides and Currents Weather Stations Pressure Air Temp Water Temp Dewpoint Dewpoint Depression Visibility Wind Speed Wind Dir Waves Ship Positions

Kruzenshtern (Russia)

ex-Padua.

Last reported at 2018-Apr-23 05:36 UTC. Time now 2018-Apr-27 08:48 UTC.
Position N 54°40' E 020°09'.

Length 114 m; draft 6 m.

Type: Sailing vessel. MMSI: 273243700.

Date/timePositionNaut miles runAvg speedWind from/ knotsBaromVisibWave heightAir tempDewpointWater temp
2018-Apr-23 05:36N 54°40' E 020°09'0 2.5
2018-Apr-23 05:30N 54°40' E 020°08'6 6.3
2018-Apr-23 04:31N 54°38' E 019°58'1 8.9
2018-Apr-23 04:27N 54°38' E 019°57'3 6.6
2018-Apr-23 03:59N 54°39' E 019°52'4 7.4
2018-Apr-23 03:30N 54°40' E 019°47'2 4.7
2018-Apr-23 03:00N 54°40' E 019°43'1 1.6
2018-Apr-23 02:30N 54°39' E 019°42'0 1.0
2018-Apr-23 02:00N 54°39' E 019°42'1 1.4
2018-Apr-23 01:30N 54°39' E 019°41'3 6.0
2018-Apr-23 01:00N 54°40' E 019°36'1 2.4
2018-Apr-23 00:30N 54°40' E 019°34'0 0.7
2018-Apr-23 00:00N 54°39' E 019°34'0 0.7
2018-Apr-22 23:28N 54°39' E 019°35'0 0.7
2018-Apr-22 22:59N 54°39' E 019°35'0 0.7
2018-Apr-22 22:20N 54°38' E 019°35'0 0.8
2018-Apr-22 22:00N 54°38' E 019°36'0 0.8
2018-Apr-22 21:30N 54°38' E 019°36'0 0.7
2018-Apr-22 21:00N 54°38' E 019°37'0 0.6
2018-Apr-22 20:30N 54°38' E 019°38'0 0.6
2018-Apr-22 19:56N 54°38' E 019°38'0 0.6
2018-Apr-22 19:18N 54°38' E 019°39'0 0.6
2018-Apr-22 18:48N 54°38' E 019°39'0 0.5
2018-Apr-22 18:30N 54°38' E 019°39'0 0.6
2018-Apr-22 18:00N 54°38' E 019°40'0 0.4
2018-Apr-22 17:21N 54°38' E 019°40'0 0.3
2018-Apr-22 17:00N 54°39' E 019°40'1 1.3
2018-Apr-22 16:30N 54°39' E 019°40'3 6.3
2018-Apr-22 16:00N 54°39' E 019°34'3 5.2
2018-Apr-22 15:29N 54°39' E 019°29'0 0.8
2018-Apr-22 15:00N 54°40' E 019°30'1 1.5
2018-Apr-22 14:30N 54°40' E 019°30'3 6.3
2018-Apr-22 13:59N 54°43' E 019°27'4 7.3
2018-Apr-22 13:29N 54°46' E 019°24'3 7.3
2018-Apr-22 13:00N 54°50' E 019°22'2 4.9
2018-Apr-22 12:31N 54°51' E 019°19'0 0.8
2018-Apr-22 12:00N 54°51' E 019°18'1 0.8
2018-Apr-22 11:15N 54°52' E 019°17'1 0.9
2018-Apr-22 10:36N 54°52' E 019°16'0 0.9
2018-Apr-22 10:26N 54°52' E 019°16'0 0.9
2018-Apr-22 10:00N 54°52' E 019°15'0 0.8
2018-Apr-22 09:30N 54°52' E 019°15'0 0.8
2018-Apr-22 08:55N 54°52' E 019°14'0 0.8
2018-Apr-22 08:30N 54°52' E 019°13'0 0.9
2018-Apr-22 07:58N 54°52' E 019°13'0 0.9
2018-Apr-22 07:30N 54°52' E 019°12'1 0.9
2018-Apr-22 06:57N 54°53' E 019°11'1 1.5
2018-Apr-22 06:27N 54°53' E 019°10'1 0.9
2018-Apr-22 05:42N 54°53' E 019°09'0 1.0
2018-Apr-22 05:23N 54°54' E 019°09'0 0.9
2018-Apr-22 05:00N 54°54' E 019°08'0 0.9
2018-Apr-22 04:30N 54°54' E 019°07'1 1.0
2018-Apr-22 03:39N 54°54' E 019°06'0 1.0
2018-Apr-22 03:19N 54°55' E 019°06'0 1.0
2018-Apr-22 02:54N 54°55' E 019°05'0 1.0
2018-Apr-22 02:28N 54°55' E 019°04'1 1.1
2018-Apr-22 01:57N 54°55' E 019°04'1 1.1
2018-Apr-22 01:30N 54°56' E 019°03'2 4.2
2018-Apr-22 01:00N 54°56' E 018°60'4 7.7
2018-Apr-22 00:29N 54°58' E 018°53'4 7.7
2018-Apr-21 23:57N 54°59' E 018°46'3 7.7
2018-Apr-21 23:30N 54°60' E 018°40'4 7.6
2018-Apr-21 22:56N 55°01' E 018°33'97 5.6
2018-Apr-21 05:34N 54°51' E 015°45'3 7.1
2018-Apr-21 05:10N 54°51' E 015°41'22 7.2
2018-Apr-21 02:08N 54°43' E 015°05'2 7.2
2018-Apr-21 01:52N 54°43' E 015°02'3 7.4
2018-Apr-21 01:28N 54°42' E 014°57'3 7.5
2018-Apr-21 01:00N 54°41' E 014°51'4 7.5
2018-Apr-21 00:26N 54°39' E 014°44'38 2.7
2018-Apr-20 10:33N 54°51' E 013°42'0 0.6
2018-Apr-20 10:08N 54°50' E 013°42'1 0.2
2018-Apr-20 05:39N 54°51' E 013°42'1 0.4
2018-Apr-20 04:14N 54°51' E 013°41'4 3.5
2018-Apr-20 03:08N 54°54' E 013°46'4 5.3
2018-Apr-20 02:27N 54°57' E 013°48'3 0.7
2018-Apr-19 21:56N 54°54' E 013°46'1 0.8
2018-Apr-19 21:15N 54°54' E 013°46'1 0.8
2018-Apr-19 19:35N 54°53' E 013°45'0 0.7
2018-Apr-19 19:29N 54°52' E 013°44'1 0.7
2018-Apr-19 18:13N 54°52' E 013°44'0 0.7
2018-Apr-19 17:59N 54°52' E 013°44'0 0.6
2018-Apr-19 17:30N 54°51' E 013°43'1 0.6
2018-Apr-19 16:39N 54°51' E 013°43'32 3.0
2018-Apr-19 06:08N 54°44' E 012°49'1 6.9
2018-Apr-19 05:59N 54°44' E 012°47'12 6.9
2018-Apr-19 04:15N 54°38' E 012°29'2 6.8
2018-Apr-19 04:00N 54°37' E 012°26'3 6.6
2018-Apr-19 03:30N 54°35' E 012°22'5 6.6
2018-Apr-19 02:48N 54°32' E 012°17'2 7.0
2018-Apr-19 02:29N 54°29' E 012°16'8 6.3
2018-Apr-19 01:15N 54°25' E 012°05'2 7.2
2018-Apr-19 01:00N 54°25' E 012°02'4 7.1
2018-Apr-19 00:30N 54°25' E 011°56'178 7.1
2018-Apr-17 23:28N 57°18' E 010°42'4 7.7
2018-Apr-17 22:55N 57°22' E 010°42'4 7.9
2018-Apr-17 22:28N 57°25' E 010°43'4 8.0
2018-Apr-17 22:00N 57°29' E 010°43'4 8.2
2018-Apr-17 21:30N 57°33' E 010°43'4 8.5
2018-Apr-17 21:00N 57°37' E 010°42'4 7.2
2018-Apr-17 20:30N 57°41' E 010°40'0 0.7
2018-Apr-17 19:48N 57°41' E 010°40'0 0.0
2018-Apr-17 19:27N 57°41' E 010°40'0 0.0
2018-Apr-17 18:57N 57°41' E 010°40'0 0.0
2018-Apr-17 18:27N 57°41' E 010°40'0 0.0
2018-Apr-17 17:42N 57°41' E 010°40'0 0.0
2018-Apr-17 17:27N 57°41' E 010°40'0 0.0
2018-Apr-17 17:00N 57°41' E 010°40'0 0.0
2018-Apr-17 16:24N 57°41' E 010°40'0 0.0
2018-Apr-17 16:00N 57°41' E 010°40'0 0.0
2018-Apr-17 15:30N 57°41' E 010°40'0 0.0
2018-Apr-17 14:54N 57°41' E 010°40'0 0.0
2018-Apr-17 14:27N 57°41' E 010°40'0 0.0
2018-Apr-17 13:57N 57°41' E 010°40'0 0.0
2018-Apr-17 13:21N 57°41' E 010°40'0 0.0
2018-Apr-17 13:00N 57°41' E 010°40'0 0.0
2018-Apr-17 12:27N 57°41' E 010°40'0 0.0
2018-Apr-17 12:00N 57°41' E 010°40'0 0.0
2018-Apr-17 11:30N 57°41' E 010°40'0 0.0
2018-Apr-17 10:57N 57°41' E 010°40'0 0.0
2018-Apr-17 10:30N 57°41' E 010°40'0 0.0
2018-Apr-17 09:57N 57°41' E 010°40'0 0.0
2018-Apr-17 09:30N 57°41' E 010°40'0 0.0
2018-Apr-17 09:00N 57°41' E 010°40'0 0.0
2018-Apr-17 08:15N 57°41' E 010°40'0 0.0
2018-Apr-17 07:54N 57°41' E 010°40'0 0.0
2018-Apr-17 07:27N 57°41' E 010°40'0 0.0
2018-Apr-17 06:54N 57°41' E 010°40'0 0.0
2018-Apr-17 06:30N 57°41' E 010°40'0 0.0
2018-Apr-17 06:00N 57°41' E 010°40'1 1.2
2018-Apr-17 05:30N 57°41' E 010°41'3 5.7
2018-Apr-17 04:54N 57°44' E 010°44'2 5.7
2018-Apr-17 04:30N 57°46' E 010°43'5 8.2
2018-Apr-17 03:56N 57°47' E 010°35'4 8.3
2018-Apr-17 03:30N 57°46' E 010°28'4 8.0
2018-Apr-17 02:59N 57°45' E 010°20'4 7.8
2018-Apr-17 02:30N 57°44' E 010°14'142 6.8
2018-Apr-16 05:44N 56°09' E 007°00'2 7.0
2018-Apr-16 05:29N 56°07' E 006°59'3 7.1
2018-Apr-16 05:00N 56°05' E 006°55'3 7.0
2018-Apr-16 04:30N 56°02' E 006°51'4 6.9
2018-Apr-16 03:57N 55°59' E 006°46'3 6.8
2018-Apr-16 03:30N 55°57' E 006°43'4 7.1
2018-Apr-16 02:59N 55°54' E 006°38'154 6.6
2018-Apr-15 03:36N 53°33' E 004°48'210.9
2018-Apr-15 03:22N 53°31' E 004°46'511.0
2018-Apr-15 02:56N 53°27' E 004°43'810.8
2018-Apr-15 02:12N 53°19' E 004°39'310.7
2018-Apr-15 01:58N 53°17' E 004°37'510.6
2018-Apr-15 01:30N 53°12' E 004°34'510.2
2018-Apr-15 01:00N 53°08' E 004°30'510.0
2018-Apr-15 00:30N 53°03' E 004°26'5 9.6
2018-Apr-14 23:59N 52°59' E 004°22'5 9.5
2018-Apr-14 23:30N 52°55' E 004°18'5 9.2
2018-Apr-14 23:00N 52°51' E 004°14'5 9.1
2018-Apr-14 22:30N 52°48' E 004°10'5 9.0
2018-Apr-14 21:57N 52°44' E 004°05'5 8.9
2018-Apr-14 21:26N 52°40' E 003°60'4 8.8
2018-Apr-14 20:58N 52°37' E 003°55'4 8.7
2018-Apr-14 20:30N 52°34' E 003°50'5 8.5
2018-Apr-14 19:58N 52°31' E 003°45'4 8.5
2018-Apr-14 19:27N 52°28' E 003°40'4 8.6
2018-Apr-14 19:00N 52°25' E 003°36'5910.4
2018-Apr-14 13:20N 51°42' E 002°31'411.8
2018-Apr-14 12:59N 51°38' E 002°27'611.8
2018-Apr-14 12:30N 51°34' E 002°21'611.8
2018-Apr-14 12:00N 51°30' E 002°15'611.7
2018-Apr-14 11:29N 51°25' E 002°08'711.8
2018-Apr-14 10:55N 51°20' E 002°01'511.9
2018-Apr-14 10:30N 51°17' E 001°56'611.9
2018-Apr-14 09:58N 51°12' E 001°48'511.5
2018-Apr-14 09:30N 51°08' E 001°43'611.2
2018-Apr-14 08:59N 51°03' E 001°39'68 8.7
2018-Apr-14 01:13N 50°21' E 000°15'3 8.9
2018-Apr-14 00:51N 50°20' E 000°10'9 9.0
2018-Apr-13 23:48N 50°18' W 000°04'3 9.0
2018-Apr-13 23:28N 50°17' W 000°09'  

Dump ship's entire track history